createdAt,value
2018-07-27T00:01:41.622Z,43.70
2018-07-27T00:04:10.756Z,43.37
2018-07-27T00:06:39.856Z,42.90
2018-07-27T00:09:11.322Z,42.84
2018-07-27T00:11:40.599Z,42.82
2018-07-27T00:14:09.735Z,42.97
2018-07-27T00:16:38.862Z,42.97
2018-07-27T00:19:07.952Z,42.39
2018-07-27T00:21:37.160Z,42.70
2018-07-27T00:24:06.266Z,42.72
2018-07-27T00:26:35.434Z,42.39
2018-07-27T00:29:04.680Z,42.36
2018-07-27T00:31:33.878Z,42.71
2018-07-27T00:34:03.068Z,42.43
2018-07-27T00:36:32.250Z,42.54
2018-07-27T00:39:01.328Z,42.55
2018-07-27T00:41:30.419Z,42.57
2018-07-27T00:43:59.524Z,42.60
2018-07-27T00:46:28.711Z,42.28
2018-07-27T00:48:57.808Z,42.33
2018-07-27T00:51:26.883Z,42.52
2018-07-27T00:53:55.986Z,42.50
2018-07-27T00:56:25.171Z,42.87
2018-07-27T00:58:55.412Z,42.40
2018-07-27T01:01:24.519Z,41.93
2018-07-27T01:03:53.590Z,42.06
2018-07-27T01:06:22.707Z,42.17
2018-07-27T01:08:53.831Z,42.27
2018-07-27T01:11:22.995Z,42.05
2018-07-27T01:13:52.334Z,42.33
2018-07-27T01:16:21.449Z,42.39
2018-07-27T01:18:51.119Z,42.34
2018-07-27T01:21:20.188Z,41.86
2018-07-27T01:23:49.274Z,41.89
2018-07-27T01:26:18.374Z,41.77
2018-07-27T01:28:47.546Z,42.00
2018-07-27T01:31:16.718Z,41.71
2018-07-27T01:33:45.806Z,41.47
2018-07-27T01:36:14.939Z,41.87
2018-07-27T01:38:44.546Z,42.15
2018-07-27T01:41:13.609Z,41.91
2018-07-27T01:43:42.815Z,41.77
2018-07-27T01:46:11.922Z,41.53
2018-07-27T01:48:41.039Z,41.75
2018-07-27T01:51:10.343Z,41.97
2018-07-27T01:53:39.422Z,42.40
2018-07-27T01:56:08.590Z,42.31
2018-07-27T01:58:37.678Z,42.05
2018-07-27T02:01:06.828Z,42.48
2018-07-27T02:03:35.911Z,42.81
2018-07-27T02:06:05.081Z,43.09
2018-07-27T02:08:34.367Z,43.10
2018-07-27T02:11:03.507Z,42.92
2018-07-27T02:13:32.720Z,43.71
2018-07-27T02:16:01.892Z,43.59
2018-07-27T02:18:31.002Z,43.27
2018-07-27T02:21:00.083Z,43.73
2018-07-27T02:23:29.183Z,43.98
2018-07-27T02:25:58.258Z,44.20
2018-07-27T02:28:27.375Z,44.26
2018-07-27T02:30:56.606Z,43.98
2018-07-27T02:33:25.987Z,43.87
2018-07-27T02:35:55.835Z,44.75
2018-07-27T02:38:24.997Z,44.53
2018-07-27T02:40:54.088Z,44.58
2018-07-27T02:43:23.272Z,44.70
2018-07-27T02:45:52.603Z,44.77
2018-07-27T02:48:21.794Z,45.21
2018-07-27T02:50:50.996Z,45.42
2018-07-27T02:53:20.214Z,45.47
2018-07-27T02:55:49.320Z,45.99
2018-07-27T02:58:18.463Z,45.44
2018-07-27T03:00:47.576Z,45.17
2018-07-27T03:03:17.043Z,45.26
2018-07-27T03:05:46.175Z,45.06
2018-07-27T03:08:15.377Z,45.43
2018-07-27T03:10:44.545Z,45.14
2018-07-27T03:13:13.659Z,45.41
2018-07-27T03:15:42.771Z,45.21
2018-07-27T03:18:11.853Z,45.73
2018-07-27T03:20:40.962Z,45.79
2018-07-27T03:23:10.055Z,45.79
2018-07-27T03:25:39.146Z,45.99
2018-07-27T03:28:08.235Z,46.33
2018-07-27T03:30:37.440Z,45.71
2018-07-27T03:33:06.567Z,45.94
2018-07-27T03:35:35.647Z,45.72
2018-07-27T03:38:04.885Z,45.60
2018-07-27T03:40:34.245Z,45.88
2018-07-27T03:43:03.351Z,45.53
2018-07-27T03:45:32.407Z,45.88
2018-07-27T03:48:05.667Z,45.65
2018-07-27T03:50:34.787Z,45.42
2018-07-27T03:53:03.916Z,45.60
2018-07-27T03:55:33.155Z,45.93
2018-07-27T03:58:02.315Z,45.07
2018-07-27T04:00:31.529Z,45.03
2018-07-27T04:03:00.638Z,45.45
2018-07-27T04:05:29.691Z,45.05
2018-07-27T04:07:58.909Z,45.08
2018-07-27T04:10:27.989Z,45.28
2018-07-27T04:12:57.081Z,44.76
2018-07-27T04:15:26.251Z,44.99
2018-07-27T04:17:59.340Z,45.13
2018-07-27T04:20:28.626Z,45.11
2018-07-27T04:22:57.904Z,45.32
2018-07-27T04:25:27.057Z,44.77
2018-07-27T04:27:56.151Z,45.04
2018-07-27T04:30:25.379Z,45.03
2018-07-27T04:32:54.527Z,45.30
2018-07-27T04:35:23.595Z,45.03
2018-07-27T04:37:52.749Z,45.55
2018-07-27T04:40:21.855Z,45.61
2018-07-27T04:42:51.663Z,45.60
2018-07-27T04:45:20.821Z,45.87
2018-07-27T04:47:49.959Z,46.30
2018-07-27T04:50:19.147Z,46.51
2018-07-27T04:52:48.343Z,46.31
2018-07-27T04:55:17.556Z,46.49
2018-07-27T04:57:46.711Z,46.25
2018-07-27T05:00:16.011Z,46.01
2018-07-27T05:02:45.172Z,45.77
2018-07-27T05:05:14.361Z,45.61
2018-07-27T05:07:43.515Z,45.43
2018-07-27T05:10:18.027Z,46.23
2018-07-27T05:12:47.147Z,46.30
2018-07-27T05:15:16.359Z,45.99
2018-07-27T05:17:45.447Z,46.14
2018-07-27T05:20:14.629Z,45.56
2018-07-27T05:22:43.674Z,45.37
2018-07-27T05:25:12.747Z,45.52
2018-07-27T05:27:41.838Z,44.96
2018-07-27T05:30:10.948Z,44.91
2018-07-27T05:32:40.022Z,44.99
2018-07-27T05:35:09.164Z,44.44
2018-07-27T05:37:38.192Z,44.99
2018-07-27T05:40:07.488Z,44.51
2018-07-27T05:42:36.632Z,44.16
2018-07-27T05:45:05.696Z,44.12
2018-07-27T05:47:34.800Z,44.32
2018-07-27T05:50:04.096Z,44.18
2018-07-27T05:52:33.183Z,44.01
2018-07-27T05:55:02.264Z,44.16
2018-07-27T05:57:31.459Z,43.35
2018-07-27T06:00:00.576Z,43.26
2018-07-27T06:02:29.748Z,43.65
2018-07-27T06:04:58.876Z,43.43
2018-07-27T06:07:28.055Z,43.69
2018-07-27T06:09:57.113Z,42.87
2018-07-27T06:12:26.297Z,42.89
2018-07-27T06:14:55.364Z,42.51
2018-07-27T06:17:24.513Z,43.05
2018-07-27T06:19:53.579Z,43.02
2018-07-27T06:22:22.663Z,42.25
2018-07-27T06:24:54.075Z,42.13
2018-07-27T06:27:23.260Z,42.18
2018-07-27T06:29:52.477Z,41.39
2018-07-27T06:32:21.779Z,41.77
2018-07-27T06:34:50.866Z,42.44
2018-07-27T06:37:19.983Z,41.62
2018-07-27T06:39:49.093Z,42.28
2018-07-27T06:42:18.175Z,42.35
2018-07-27T06:44:47.380Z,42.64
2018-07-27T06:47:16.500Z,41.76
2018-07-27T06:49:45.657Z,41.73
2018-07-27T06:52:14.818Z,42.52
2018-07-27T06:54:44.064Z,41.44
2018-07-27T06:57:13.398Z,41.59
2018-07-27T06:59:42.644Z,41.15
2018-07-27T07:02:11.792Z,42.34
2018-07-27T07:04:40.981Z,41.79
2018-07-27T07:07:10.191Z,42.03
2018-07-27T07:09:39.247Z,41.92
2018-07-27T07:12:08.366Z,42.53
2018-07-27T07:14:37.521Z,41.58
2018-07-27T07:17:06.743Z,42.07
2018-07-27T07:19:35.961Z,41.95
2018-07-27T07:22:05.137Z,41.34
2018-07-27T07:24:34.347Z,42.10
2018-07-27T07:27:03.846Z,41.11
2018-07-27T07:29:32.951Z,41.65
2018-07-27T07:32:02.288Z,40.86
2018-07-27T07:34:31.507Z,40.37
2018-07-27T07:37:00.658Z,40.99
2018-07-27T07:39:30.186Z,39.20
2018-07-27T07:41:59.264Z,41.03
2018-07-27T07:44:28.447Z,41.50
2018-07-27T07:46:57.742Z,41.79
2018-07-27T07:49:26.977Z,41.98
2018-07-27T07:51:56.234Z,41.94
2018-07-27T07:54:25.442Z,41.43
2018-07-27T07:56:54.662Z,41.69
2018-07-27T07:59:24.281Z,42.08
2018-07-27T08:01:53.455Z,41.59
2018-07-27T08:04:27.976Z,41.84
2018-07-27T08:06:57.837Z,40.95
2018-07-27T08:09:27.108Z,41.94
2018-07-27T08:11:56.294Z,39.26
2018-07-27T08:14:25.479Z,39.87
2018-07-27T08:16:54.904Z,41.15
2018-07-27T08:19:24.109Z,39.54
2018-07-27T08:21:53.294Z,39.99
2018-07-27T08:31:09.843Z,39.31
2018-07-27T08:33:38.933Z,40.75
2018-07-27T08:36:08.236Z,37.10
2018-07-27T08:38:37.407Z,37.04
2018-07-27T08:41:06.587Z,35.28
2018-07-27T08:43:35.912Z,35.58
2018-07-27T08:46:05.127Z,35.74
2018-07-27T08:48:34.319Z,35.67
2018-07-27T08:51:03.423Z,37.42
2018-07-27T08:53:32.611Z,37.29
2018-07-27T08:56:01.823Z,38.04
2018-07-27T08:58:30.983Z,38.75
2018-07-27T09:01:00.120Z,38.81
2018-07-27T09:03:29.321Z,38.97
2018-07-27T09:05:58.485Z,39.02
2018-07-27T09:08:27.590Z,39.10
2018-07-27T09:10:56.917Z,39.30
2018-07-27T09:13:26.520Z,39.42
2018-07-27T09:15:55.697Z,39.38
2018-07-27T09:18:24.801Z,39.32
2018-07-27T09:20:54.710Z,39.89
2018-07-27T09:23:25.172Z,39.69
2018-07-27T09:25:54.599Z,40.08
2018-07-27T09:28:23.711Z,39.56
2018-07-27T09:30:52.860Z,39.47
2018-07-27T09:33:22.195Z,39.81
2018-07-27T09:35:51.528Z,39.67
2018-07-27T09:38:20.733Z,40.10
2018-07-27T09:40:50.161Z,40.03
2018-07-27T09:43:19.805Z,40.08
2018-07-27T09:45:48.814Z,40.55
2018-07-27T09:48:17.918Z,40.27
2018-07-27T09:50:47.040Z,40.19
2018-07-27T09:53:16.356Z,40.67
2018-07-27T09:55:45.696Z,40.54
2018-07-27T09:58:14.826Z,40.22
2018-07-27T10:00:49.359Z,40.73
2018-07-27T10:03:18.675Z,40.78
2018-07-27T10:05:47.872Z,40.32
2018-07-27T10:08:17.168Z,40.32
2018-07-27T10:10:46.376Z,40.44
2018-07-27T10:13:15.575Z,40.32
2018-07-27T10:15:44.747Z,40.33
2018-07-27T10:18:13.922Z,40.42
2018-07-27T10:20:43.058Z,40.15
2018-07-27T10:23:13.490Z,40.56
2018-07-27T10:25:42.576Z,40.33
2018-07-27T10:28:11.777Z,40.59
2018-07-27T10:30:41.096Z,40.40
2018-07-27T10:33:10.237Z,40.35
2018-07-27T10:35:39.386Z,39.99
2018-07-27T10:38:08.783Z,40.47
2018-07-27T10:40:37.978Z,40.48
2018-07-27T10:43:07.151Z,40.12
2018-07-27T10:45:36.354Z,40.04
2018-07-27T10:48:05.964Z,40.11
2018-07-27T10:50:35.191Z,40.05
2018-07-27T10:53:04.345Z,39.38
2018-07-27T10:55:33.479Z,39.60
2018-07-27T10:58:02.656Z,39.68
2018-07-27T11:00:31.874Z,39.89
2018-07-27T11:03:01.125Z,39.44
2018-07-27T11:05:30.253Z,39.33
2018-07-27T11:07:59.474Z,39.45
2018-07-27T11:10:28.760Z,39.65
2018-07-27T11:12:58.082Z,38.77
2018-07-27T11:15:27.244Z,39.03
2018-07-27T11:17:56.450Z,39.26
2018-07-27T11:20:25.637Z,38.52
2018-07-27T11:22:54.864Z,39.31
2018-07-27T11:25:23.986Z,38.75
2018-07-27T11:27:53.130Z,38.74
2018-07-27T11:30:22.352Z,38.50
2018-07-27T11:32:51.556Z,39.08
2018-07-27T11:35:20.738Z,38.91
2018-07-27T11:37:49.919Z,38.75
2018-07-27T11:40:19.091Z,39.12
2018-07-27T11:42:48.198Z,38.64
2018-07-27T11:45:17.347Z,38.58
2018-07-27T11:47:46.694Z,38.79
2018-07-27T11:50:15.811Z,38.29
2018-07-27T11:52:45.024Z,38.68
2018-07-27T11:55:14.230Z,38.61
2018-07-27T11:57:43.331Z,38.60
2018-07-27T12:00:12.420Z,38.56
2018-07-27T12:02:41.802Z,37.76
2018-07-27T12:05:10.913Z,38.18
2018-07-27T12:07:40.091Z,38.27
2018-07-27T12:10:09.228Z,38.03
2018-07-27T12:12:38.371Z,37.26
2018-07-27T12:15:07.666Z,37.84
2018-07-27T12:17:36.916Z,37.54
2018-07-27T12:20:06.082Z,37.61
2018-07-27T12:22:35.285Z,37.77
2018-07-27T12:25:04.402Z,36.58
2018-07-27T12:27:33.590Z,37.30
2018-07-27T12:30:02.782Z,37.05
2018-07-27T12:32:33.014Z,37.00
2018-07-27T12:35:02.423Z,36.56
2018-07-27T12:37:31.563Z,37.10
2018-07-27T12:40:00.659Z,37.40
2018-07-27T12:42:29.942Z,37.07
2018-07-27T12:44:59.460Z,37.11
2018-07-27T12:47:28.725Z,37.18
2018-07-27T12:49:58.125Z,37.21
2018-07-27T12:52:27.339Z,36.21
2018-07-27T12:54:56.498Z,36.87
2018-07-27T12:57:25.697Z,36.86
2018-07-27T12:59:54.891Z,36.69
2018-07-27T13:02:24.132Z,36.17
2018-07-27T13:04:53.290Z,34.62
2018-07-27T13:07:22.486Z,36.63
2018-07-27T13:09:55.873Z,36.41
2018-07-27T13:12:24.987Z,36.20
2018-07-27T13:14:54.210Z,35.55
2018-07-27T13:17:23.393Z,35.56
2018-07-27T13:19:52.590Z,36.41
2018-07-27T13:22:21.852Z,36.00
2018-07-27T13:24:58.022Z,35.90
2018-07-27T13:27:20.252Z,36.28
2018-07-27T13:29:49.335Z,35.33
2018-07-27T13:32:18.423Z,36.20
2018-07-27T13:37:18.554Z,35.56
2018-07-27T13:39:48.587Z,35.76
2018-07-27T13:42:19.194Z,35.37
2018-07-27T13:44:48.402Z,35.05
2018-07-27T13:47:18.181Z,34.14
2018-07-27T13:49:47.354Z,34.47
2018-07-27T13:52:16.580Z,33.42
2018-07-27T13:54:45.778Z,34.28
2018-07-27T13:57:14.956Z,33.47
2018-07-27T13:59:44.276Z,34.65
2018-07-27T14:02:13.612Z,34.25
2018-07-27T14:04:42.774Z,34.84
2018-07-27T14:07:12.531Z,34.78
2018-07-27T14:09:41.638Z,33.19
2018-07-27T14:12:10.767Z,34.61
2018-07-27T14:14:39.852Z,35.14
2018-07-27T14:17:09.062Z,35.19
2018-07-27T14:19:38.200Z,35.78
2018-07-27T14:22:07.996Z,34.83
2018-07-27T14:24:37.175Z,34.89
2018-07-27T14:27:06.411Z,36.53
2018-07-27T14:29:35.570Z,37.62
2018-07-27T14:32:04.740Z,34.90
2018-07-27T14:34:33.943Z,35.13
2018-07-27T14:37:03.184Z,34.95
2018-07-27T14:39:32.345Z,35.30
2018-07-27T14:42:01.555Z,35.42
2018-07-27T14:44:30.771Z,35.98
2018-07-27T14:47:00.039Z,36.71
2018-07-27T14:49:29.219Z,36.39
2018-07-27T14:51:58.312Z,36.63
2018-07-27T14:54:27.436Z,36.87
2018-07-27T14:56:56.648Z,36.56
2018-07-27T14:59:25.689Z,36.70
2018-07-27T15:01:54.846Z,36.62
2018-07-27T15:04:23.882Z,36.57
2018-07-27T15:06:53.010Z,36.29
2018-07-27T15:09:22.205Z,36.50
2018-07-27T15:11:51.286Z,36.04
2018-07-27T15:14:20.403Z,36.22
2018-07-27T15:16:49.556Z,36.48
2018-07-27T15:19:18.783Z,36.08
2018-07-27T15:21:48.004Z,36.33
2018-07-27T15:24:17.202Z,36.28
2018-07-27T15:26:46.559Z,36.11
2018-07-27T15:29:15.629Z,36.44
2018-07-27T15:31:44.791Z,36.39
2018-07-27T15:34:14.609Z,36.33
2018-07-27T15:36:43.651Z,36.34
2018-07-27T15:39:12.779Z,36.35
2018-07-27T15:41:41.876Z,36.08
2018-07-27T15:44:11.001Z,36.43
2018-07-27T15:46:40.225Z,36.14
2018-07-27T15:49:12.831Z,35.93
2018-07-27T15:51:42.731Z,36.23
2018-07-27T15:54:11.866Z,36.14
2018-07-27T15:56:40.946Z,35.98
2018-07-27T15:59:10.084Z,35.92
2018-07-27T16:01:39.543Z,36.24
2018-07-27T16:04:08.672Z,35.91
2018-07-27T16:06:37.780Z,36.11
2018-07-27T16:09:09.007Z,35.49
2018-07-27T16:11:40.130Z,35.75
2018-07-27T16:14:10.264Z,36.01
2018-07-27T16:16:40.368Z,36.04
2018-07-27T16:19:10.403Z,35.70
2018-07-27T16:21:39.602Z,36.29
2018-07-27T16:24:08.822Z,35.73
2018-07-27T16:26:37.918Z,35.73
2018-07-27T16:29:07.103Z,35.66
2018-07-27T16:31:36.291Z,35.19
2018-07-27T16:34:05.699Z,35.71
2018-07-27T16:36:34.923Z,35.66
2018-07-27T16:39:06.164Z,35.43
2018-07-27T16:41:35.344Z,35.36
2018-07-27T16:44:04.697Z,35.51
2018-07-27T16:46:33.869Z,34.98
2018-07-27T16:49:03.123Z,35.30
2018-07-27T16:51:33.718Z,34.86
2018-07-27T16:54:03.543Z,34.75
2018-07-27T16:56:32.691Z,34.96
2018-07-27T16:59:01.864Z,35.36
2018-07-27T17:01:31.072Z,35.63
2018-07-27T17:04:00.270Z,35.67
2018-07-27T17:06:29.502Z,35.45
2018-07-27T17:09:01.310Z,35.58
2018-07-27T17:11:30.532Z,35.40
2018-07-27T17:13:59.717Z,34.96
2018-07-27T17:16:28.788Z,35.09
2018-07-27T17:18:58.185Z,35.24
2018-07-27T17:21:27.353Z,35.09
2018-07-27T17:23:56.576Z,34.91
2018-07-27T17:26:25.735Z,34.81
2018-07-27T17:28:54.909Z,34.94
2018-07-27T17:31:24.117Z,34.59
2018-07-27T17:33:53.304Z,34.97
2018-07-27T17:36:22.653Z,34.57
2018-07-27T17:38:51.831Z,34.52
2018-07-27T17:41:21.126Z,34.90
2018-07-27T17:43:50.297Z,34.60
2018-07-27T17:46:19.405Z,34.86
2018-07-27T17:48:48.611Z,35.13
2018-07-27T17:51:19.538Z,35.21
2018-07-27T17:53:48.759Z,35.07
2018-07-27T17:56:17.911Z,35.24
2018-07-27T17:58:52.743Z,35.28
2018-07-27T18:01:27.401Z,35.29
2018-07-27T18:03:56.615Z,35.09
2018-07-27T18:06:26.916Z,35.20
2018-07-27T18:08:57.051Z,35.10
2018-07-27T18:11:26.204Z,34.88
2018-07-27T18:13:56.368Z,35.44
2018-07-27T18:16:26.583Z,34.85
2018-07-27T18:18:55.850Z,35.02
2018-07-27T18:21:25.188Z,35.13
2018-07-27T18:23:54.372Z,34.95
2018-07-27T18:26:23.555Z,35.08
2018-07-27T18:28:52.632Z,35.11
2018-07-27T18:31:21.925Z,35.44
2018-07-27T18:33:51.059Z,35.13
2018-07-27T18:36:20.283Z,35.25
2018-07-27T18:38:49.443Z,35.37
2018-07-27T18:41:18.536Z,35.49
2018-07-27T18:43:47.648Z,35.03
2018-07-27T18:46:16.872Z,35.18
2018-07-27T18:48:46.256Z,35.21
2018-07-27T18:51:15.468Z,35.31
2018-07-27T18:53:44.644Z,35.24
2018-07-27T18:56:13.858Z,35.03
2018-07-27T18:58:43.163Z,35.12
2018-07-27T19:01:12.337Z,33.82
2018-07-27T19:03:41.417Z,34.61
2018-07-27T19:06:10.662Z,34.84
2018-07-27T19:08:39.875Z,34.78
2018-07-27T19:11:09.169Z,35.05
2018-07-27T19:13:38.561Z,34.87
2018-07-27T19:16:08.340Z,35.01
2018-07-27T19:18:37.472Z,34.79
2018-07-27T19:21:06.666Z,34.84
2018-07-27T19:23:35.913Z,34.70
2018-07-27T19:26:05.252Z,34.77
2018-07-27T19:28:34.458Z,34.72
2018-07-27T19:31:03.651Z,34.36
2018-07-27T19:33:32.838Z,34.86
2018-07-27T19:36:02.035Z,34.28
2018-07-27T19:38:31.244Z,34.08
2018-07-27T19:41:00.459Z,34.03
2018-07-27T19:43:29.665Z,33.72
2018-07-27T19:45:58.845Z,33.79
2018-07-27T19:48:28.065Z,33.68
2018-07-27T19:50:57.969Z,33.65
2018-07-27T19:53:27.475Z,33.49
2018-07-27T19:55:56.671Z,33.39
2018-07-27T19:58:25.903Z,33.00
2018-07-27T20:00:55.020Z,33.27
2018-07-27T20:03:24.164Z,32.67
2018-07-27T20:05:53.335Z,32.43
2018-07-27T20:08:22.589Z,32.16
2018-07-27T20:10:51.858Z,31.26
2018-07-27T20:13:21.057Z,30.86
2018-07-27T20:15:50.251Z,31.91
2018-07-27T20:18:19.451Z,32.06
2018-07-27T20:20:48.654Z,31.69
2018-07-27T20:23:17.880Z,31.26
2018-07-27T20:25:47.257Z,31.31
2018-07-27T20:28:16.358Z,31.23
2018-07-27T20:30:45.577Z,31.32
2018-07-27T20:33:14.735Z,31.32
2018-07-27T20:35:43.853Z,30.83
2018-07-27T20:38:13.023Z,31.34
2018-07-27T20:40:43.905Z,31.10
2018-07-27T20:43:13.053Z,31.17
2018-07-27T20:45:42.171Z,30.63
2018-07-27T20:48:11.369Z,31.05
2018-07-27T20:50:40.664Z,30.20
2018-07-27T20:53:09.996Z,30.07
2018-07-27T20:55:39.269Z,30.67
2018-07-27T20:58:08.381Z,28.69
2018-07-27T21:00:37.547Z,27.84
2018-07-27T21:03:06.666Z,27.83
2018-07-27T21:05:36.566Z,27.61
2018-07-27T21:08:06.031Z,27.65
2018-07-27T21:10:35.212Z,27.45
2018-07-27T21:13:04.343Z,27.50
2018-07-27T21:15:33.482Z,27.44
2018-07-27T21:18:02.648Z,27.18
2018-07-27T21:20:31.884Z,27.67
2018-07-27T21:23:01.044Z,27.60
2018-07-27T21:25:30.140Z,27.45
2018-07-27T21:27:59.212Z,27.12
2018-07-27T21:30:28.315Z,27.64
2018-07-27T21:32:57.512Z,27.75
2018-07-27T21:35:26.608Z,28.05
2018-07-27T21:37:55.662Z,28.65
2018-07-27T21:40:24.744Z,29.27
2018-07-27T21:42:53.908Z,30.85
2018-07-27T21:45:23.146Z,31.60
2018-07-27T21:47:53.355Z,32.81
2018-07-27T21:50:22.544Z,33.88
2018-07-27T21:52:51.712Z,34.46
2018-07-27T21:55:20.940Z,34.28
2018-07-27T21:57:50.033Z,36.03
2018-07-27T22:00:19.404Z,36.61
2018-07-27T22:02:48.547Z,37.62
2018-07-27T22:05:17.722Z,38.36
2018-07-27T22:07:50.676Z,38.34
2018-07-27T22:10:19.818Z,38.66
2018-07-27T22:12:48.959Z,38.67
2018-07-27T22:15:22.416Z,39.18
2018-07-27T22:17:51.690Z,39.64
2018-07-27T22:20:22.066Z,39.77
2018-07-27T22:22:51.213Z,40.41
2018-07-27T22:25:20.423Z,40.27
2018-07-27T22:27:49.602Z,40.46
2018-07-27T22:30:19.668Z,40.74
2018-07-27T22:32:48.906Z,41.28
2018-07-27T22:35:17.993Z,41.01
2018-07-27T22:37:47.119Z,41.37
2018-07-27T22:40:16.343Z,41.96
2018-07-27T22:42:45.521Z,41.88
2018-07-27T22:45:14.707Z,41.80
2018-07-27T22:47:43.935Z,42.21
2018-07-27T22:50:13.153Z,42.96
2018-07-27T22:52:42.286Z,43.25
2018-07-27T22:55:12.389Z,43.60
2018-07-27T22:57:42.502Z,44.02
2018-07-27T23:00:14.123Z,44.30
2018-07-27T23:02:43.692Z,44.28
2018-07-27T23:05:13.388Z,44.38
2018-07-27T23:07:42.548Z,44.79
2018-07-27T23:10:11.718Z,44.46
2018-07-27T23:12:40.970Z,44.63
2018-07-27T23:15:11.837Z,44.64
2018-07-27T23:17:41.138Z,44.94
2018-07-27T23:20:14.163Z,45.17
2018-07-27T23:22:44.137Z,45.39
2018-07-27T23:25:13.292Z,45.56
2018-07-27T23:27:42.460Z,45.32
2018-07-27T23:30:13.205Z,45.78
2018-07-27T23:32:42.482Z,45.35
2018-07-27T23:35:11.604Z,45.53
2018-07-27T23:37:40.790Z,46.09
2018-07-27T23:40:09.965Z,45.75
2018-07-27T23:42:39.201Z,45.86
2018-07-27T23:45:09.164Z,45.53
2018-07-27T23:47:38.456Z,45.73
2018-07-27T23:50:07.994Z,46.23
2018-07-27T23:52:37.103Z,46.29
2018-07-27T23:55:06.309Z,46.56
2018-07-27T23:57:35.958Z,46.44
